createdAt,value
2022-08-07T00:00:36.331Z,13.45
2022-08-07T00:03:07.239Z,13.41
2022-08-07T00:05:36.156Z,13.35
2022-08-07T00:08:04.945Z,13.28
2022-08-07T00:10:31.762Z,13.30
2022-08-07T00:13:02.038Z,13.31
2022-08-07T00:15:38.187Z,13.33
2022-08-07T00:18:19.363Z,13.35
2022-08-07T00:20:49.230Z,13.29
2022-08-07T00:23:17.098Z,13.32
2022-08-07T00:25:45.785Z,13.30
2022-08-07T00:28:19.448Z,13.29
2022-08-07T00:30:48.690Z,13.20
2022-08-07T00:33:15.503Z,13.20
2022-08-07T00:35:45.398Z,13.27
2022-08-07T00:38:15.556Z,13.20
2022-08-07T00:40:41.993Z,13.16
2022-08-07T00:43:59.782Z,13.17
2022-08-07T00:46:00.255Z,13.09
2022-08-07T00:48:31.024Z,13.09
2022-08-07T00:51:00.283Z,13.07
2022-08-07T00:53:27.277Z,13.10
2022-08-07T00:56:07.346Z,13.04
2022-08-07T00:58:47.403Z,12.99
2022-08-07T01:01:17.559Z,12.87
2022-08-07T01:03:55.394Z,12.83
2022-08-07T01:06:23.958Z,12.77
2022-08-07T01:08:53.398Z,12.70
2022-08-07T01:12:04.652Z,12.66
2022-08-07T01:14:09.171Z,12.59
2022-08-07T01:16:36.771Z,12.60
2022-08-07T01:19:18.570Z,12.55
2022-08-07T01:21:53.035Z,12.60
2022-08-07T01:24:22.363Z,12.59
2022-08-07T01:26:52.207Z,12.60
2022-08-07T01:29:27.996Z,12.59
2022-08-07T01:31:59.428Z,12.52
2022-08-07T01:34:30.949Z,12.48
2022-08-07T01:37:00.841Z,12.45
2022-08-07T01:39:39.671Z,12.41
2022-08-07T01:42:39.624Z,12.37
2022-08-07T01:45:17.823Z,12.37
2022-08-07T01:48:20.416Z,12.40
2022-08-07T01:50:38.189Z,12.31
2022-08-07T01:53:10.343Z,12.24
2022-08-07T01:55:56.740Z,12.11
2022-08-07T01:58:33.406Z,12.11
2022-08-07T02:01:09.892Z,12.12
2022-08-07T02:04:01.069Z,12.03
2022-08-07T02:06:33.073Z,12.06
2022-08-07T02:09:05.879Z,12.02
2022-08-07T02:12:03.914Z,11.96
2022-08-07T02:14:35.667Z,11.88
2022-08-07T02:17:12.707Z,11.82
2022-08-07T02:20:06.738Z,11.78
2022-08-07T02:22:38.369Z,11.79
2022-08-07T02:25:17.050Z,11.76
2022-08-07T02:27:51.199Z,11.78
2022-08-07T02:30:19.140Z,11.76
2022-08-07T02:33:07.265Z,11.72
2022-08-07T02:36:28.870Z,11.70
2022-08-07T02:38:32.251Z,11.68
2022-08-07T02:41:04.451Z,11.64
2022-08-07T02:43:39.592Z,11.67
2022-08-07T02:46:08.884Z,11.57
2022-08-07T02:48:36.179Z,11.46
2022-08-07T02:51:28.992Z,11.43
2022-08-07T02:54:01.665Z,11.43
2022-08-07T02:56:33.141Z,11.41
2022-08-07T02:59:03.792Z,11.29
2022-08-07T03:01:35.593Z,11.17
2022-08-07T03:04:12.824Z,11.21
2022-08-07T03:06:44.855Z,11.17
2022-08-07T03:09:13.818Z,11.18
2022-08-07T03:11:51.709Z,11.23
2022-08-07T03:14:22.639Z,11.25
2022-08-07T03:16:50.542Z,11.26
2022-08-07T03:19:19.414Z,11.27
2022-08-07T03:21:50.906Z,11.24
2022-08-07T03:24:27.297Z,11.25
2022-08-07T03:27:00.908Z,11.19
2022-08-07T03:29:49.617Z,11.18
2022-08-07T03:32:24.565Z,11.18
2022-08-07T03:35:17.055Z,11.12
2022-08-07T03:37:53.525Z,11.07
2022-08-07T03:40:27.523Z,11.07
2022-08-07T03:43:00.031Z,11.03
2022-08-07T03:45:31.525Z,11.03
2022-08-07T03:48:10.137Z,11.03
2022-08-07T03:50:38.930Z,11.02
2022-08-07T03:53:10.479Z,10.93
2022-08-07T03:55:57.342Z,10.97
2022-08-07T03:59:06.851Z,10.92
2022-08-07T04:01:14.061Z,10.93
2022-08-07T04:03:53.456Z,10.92
2022-08-07T04:06:36.318Z,11.08
2022-08-07T04:09:15.733Z,11.28
2022-08-07T04:12:26.724Z,11.44
2022-08-07T04:14:38.441Z,11.32
2022-08-07T04:17:20.121Z,11.22
2022-08-07T04:19:52.500Z,11.18
2022-08-07T04:22:27.628Z,11.15
2022-08-07T04:24:58.751Z,11.18
2022-08-07T04:27:28.166Z,11.20
2022-08-07T04:30:02.287Z,11.22
2022-08-07T04:32:44.905Z,11.27
2022-08-07T04:35:15.779Z,11.32
2022-08-07T04:38:02.925Z,11.39
2022-08-07T04:40:31.319Z,11.41
2022-08-07T04:43:02.278Z,11.48
2022-08-07T04:46:01.523Z,11.56
2022-08-07T04:48:50.972Z,11.66
2022-08-07T04:51:27.591Z,11.73
2022-08-07T04:54:06.981Z,11.79
2022-08-07T04:58:11.441Z,11.75
2022-08-07T05:00:11.269Z,11.86
2022-08-07T05:03:00.550Z,11.99
2022-08-07T05:05:53.555Z,12.10
2022-08-07T05:08:59.760Z,12.24
2022-08-07T05:11:57.364Z,12.37
2022-08-07T05:14:52.665Z,12.54
2022-08-07T05:18:00.600Z,12.68
2022-08-07T05:20:15.006Z,12.87
2022-08-07T05:22:46.201Z,13.02
2022-08-07T05:25:25.719Z,13.18
2022-08-07T05:28:20.191Z,13.45
2022-08-07T05:30:48.718Z,13.75
2022-08-07T05:33:18.041Z,13.99
2022-08-07T05:35:50.642Z,14.22
2022-08-07T05:38:58.430Z,14.42
2022-08-07T05:41:12.269Z,14.74
2022-08-07T05:44:08.635Z,15.12
2022-08-07T05:46:34.783Z,15.36
2022-08-07T05:49:12.126Z,15.66
2022-08-07T05:51:42.534Z,16.00
2022-08-07T05:54:30.302Z,16.25
2022-08-07T05:56:57.108Z,16.52
2022-08-07T05:59:25.411Z,16.81
2022-08-07T06:01:59.796Z,17.23
2022-08-07T06:04:30.237Z,17.81
2022-08-07T06:07:03.788Z,18.47
2022-08-07T06:10:03.762Z,19.01
2022-08-07T06:12:27.837Z,19.42
2022-08-07T06:15:05.263Z,19.74
2022-08-07T06:17:37.812Z,20.05
2022-08-07T06:20:06.693Z,20.50
2022-08-07T06:22:42.203Z,20.78
2022-08-07T06:25:36.330Z,21.12
2022-08-07T06:28:06.056Z,21.33
2022-08-07T06:30:37.559Z,21.53
2022-08-07T06:33:15.978Z,21.79
2022-08-07T06:36:06.187Z,21.70
2022-08-07T06:38:32.326Z,21.80
2022-08-07T06:41:01.207Z,22.12
2022-08-07T06:43:39.965Z,22.27
2022-08-07T06:46:15.066Z,22.63
2022-08-07T06:48:57.540Z,22.66
2022-08-07T06:51:33.589Z,22.74
2022-08-07T06:55:28.605Z,22.92
2022-08-07T06:56:53.733Z,23.17
2022-08-07T07:00:14.716Z,23.16
2022-08-07T07:02:48.152Z,23.15
2022-08-07T07:05:09.084Z,23.29
2022-08-07T07:07:59.315Z,23.47
2022-08-07T07:10:33.352Z,23.62
2022-08-07T07:13:13.619Z,23.76
2022-08-07T07:15:45.796Z,23.75
2022-08-07T07:18:46.983Z,23.54
2022-08-07T07:21:22.095Z,23.79
2022-08-07T07:24:09.623Z,23.62
2022-08-07T07:26:40.890Z,24.11
2022-08-07T07:29:40.082Z,24.22
2022-08-07T07:32:09.352Z,24.28
2022-08-07T07:34:40.638Z,24.55
2022-08-07T07:37:22.063Z,24.63
2022-08-07T07:40:02.867Z,24.30
2022-08-07T07:42:38.541Z,24.67
2022-08-07T07:45:06.679Z,24.62
2022-08-07T07:47:42.852Z,24.77
2022-08-07T07:50:34.645Z,24.93
2022-08-07T07:53:20.267Z,25.09
2022-08-07T07:55:57.937Z,25.13
2022-08-07T07:58:30.800Z,25.38
2022-08-07T08:02:01.811Z,25.34
2022-08-07T08:04:10.705Z,25.22
2022-08-07T08:06:40.641Z,25.10
2022-08-07T08:09:20.740Z,24.78
2022-08-07T08:12:02.886Z,25.04
2022-08-07T08:14:34.433Z,25.38
2022-08-07T08:18:04.345Z,25.60
2022-08-07T08:20:18.222Z,25.51
2022-08-07T08:23:08.093Z,25.49
2022-08-07T08:25:56.764Z,25.68
2022-08-07T08:28:38.009Z,25.61
2022-08-07T08:31:14.776Z,25.63
2022-08-07T08:33:49.122Z,25.79
2022-08-07T08:36:18.485Z,26.00
2022-08-07T08:38:54.329Z,26.04
2022-08-07T08:41:31.482Z,26.06
2022-08-07T08:44:29.327Z,25.90
2022-08-07T08:47:14.047Z,25.95
2022-08-07T08:50:04.646Z,25.89
2022-08-07T08:52:53.548Z,26.01
2022-08-07T08:55:54.350Z,26.04
2022-08-07T08:58:35.267Z,25.99
2022-08-07T09:01:30.008Z,26.32
2022-08-07T09:04:26.000Z,26.41
2022-08-07T09:07:06.095Z,26.60
2022-08-07T09:09:58.382Z,26.85
2022-08-07T09:12:32.055Z,26.83
2022-08-07T09:16:25.297Z,27.17
2022-08-07T09:18:41.531Z,27.04
2022-08-07T09:21:33.846Z,27.18
2022-08-07T09:24:55.975Z,27.17
2022-08-07T09:27:38.417Z,26.90
2022-08-07T09:30:28.333Z,27.06
2022-08-07T09:33:16.226Z,27.18
2022-08-07T09:36:21.537Z,27.06
2022-08-07T09:39:55.093Z,26.43
2022-08-07T09:42:22.763Z,26.76
2022-08-07T09:47:26.191Z,27.02
2022-08-07T09:48:29.626Z,26.65
2022-08-07T09:51:20.239Z,26.34
2022-08-07T09:54:02.893Z,26.01
2022-08-07T09:56:48.700Z,26.53
2022-08-07T09:59:46.213Z,26.93
2022-08-07T10:02:34.591Z,27.10
2022-08-07T10:05:59.593Z,27.20
2022-08-07T10:08:44.189Z,27.28
2022-08-07T10:12:01.365Z,26.66
2022-08-07T10:15:04.933Z,26.38
2022-08-07T10:18:10.429Z,26.26
2022-08-07T10:21:19.483Z,26.07
2022-08-07T10:24:08.682Z,26.25
2022-08-07T10:26:51.557Z,26.52
2022-08-07T10:29:51.687Z,26.58
2022-08-07T10:32:59.985Z,26.70
2022-08-07T10:35:55.056Z,26.47
2022-08-07T10:38:49.395Z,26.21
2022-08-07T10:41:46.309Z,25.65
2022-08-07T10:44:45.177Z,25.68
2022-08-07T10:47:54.956Z,25.68
2022-08-07T10:50:32.118Z,25.76
2022-08-07T10:53:21.290Z,25.72
2022-08-07T10:56:02.551Z,25.84
2022-08-07T10:58:59.419Z,26.25
2022-08-07T11:01:51.439Z,26.70
2022-08-07T11:04:38.108Z,26.29
2022-08-07T11:07:59.610Z,26.28
2022-08-07T11:10:48.719Z,26.94
2022-08-07T11:14:42.371Z,26.84
2022-08-07T11:16:56.779Z,27.00
2022-08-07T11:19:50.298Z,26.49
2022-08-07T11:22:32.221Z,26.23
2022-08-07T11:25:30.389Z,26.30
2022-08-07T11:28:35.880Z,26.44
2022-08-07T11:31:17.924Z,26.11
2022-08-07T11:34:11.147Z,26.01
2022-08-07T11:36:37.578Z,25.62
2022-08-07T11:39:22.133Z,26.14
2022-08-07T11:42:18.958Z,25.99
2022-08-07T11:44:58.673Z,26.22
2022-08-07T11:47:56.291Z,26.29
2022-08-07T11:50:57.190Z,26.33
2022-08-07T11:54:00.408Z,26.30
2022-08-07T11:56:56.357Z,26.30
2022-08-07T12:00:12.603Z,26.41
2022-08-07T12:02:33.460Z,26.30
2022-08-07T12:05:09.213Z,26.10
2022-08-07T12:07:53.429Z,25.93
2022-08-07T12:10:41.822Z,25.92
2022-08-07T12:13:36.717Z,25.74
2022-08-07T12:16:10.318Z,25.60
2022-08-07T12:19:14.715Z,25.77
2022-08-07T12:22:37.934Z,25.81
2022-08-07T12:26:03.522Z,25.98
2022-08-07T12:28:44.986Z,26.02
2022-08-07T12:31:26.896Z,26.04
2022-08-07T12:34:14.121Z,26.24
2022-08-07T12:36:42.715Z,26.51
2022-08-07T12:39:44.377Z,26.54
2022-08-07T12:42:07.508Z,26.58
2022-08-07T12:44:35.564Z,26.34
2022-08-07T12:47:30.801Z,26.40
2022-08-07T12:50:39.213Z,26.42
2022-08-07T12:53:05.365Z,26.11
2022-08-07T12:56:03.568Z,26.26
2022-08-07T12:58:39.309Z,26.37
2022-08-07T13:01:08.765Z,26.56
2022-08-07T13:04:03.167Z,26.79
2022-08-07T13:07:09.035Z,27.15
2022-08-07T13:10:20.427Z,27.29
2022-08-07T13:13:48.134Z,27.51
2022-08-07T13:16:16.908Z,27.46
2022-08-07T13:19:21.798Z,27.71
2022-08-07T13:22:12.774Z,27.87
2022-08-07T13:25:06.877Z,27.42
2022-08-07T13:28:12.786Z,27.87
2022-08-07T13:30:52.110Z,28.05
2022-08-07T13:34:31.693Z,28.44
2022-08-07T13:36:39.880Z,28.65
2022-08-07T13:39:28.385Z,28.35
2022-08-07T13:42:02.794Z,28.55
2022-08-07T13:44:34.581Z,28.48
2022-08-07T13:47:09.467Z,28.40
2022-08-07T13:50:34.239Z,28.64
2022-08-07T13:52:38.047Z,28.70
2022-08-07T13:55:19.353Z,28.75
2022-08-07T13:58:27.473Z,28.99
2022-08-07T14:01:00.051Z,29.06
2022-08-07T14:04:05.153Z,29.11
2022-08-07T14:06:35.935Z,28.76
2022-08-07T14:09:04.949Z,28.34
2022-08-07T14:11:53.948Z,28.57
2022-08-07T14:14:30.721Z,28.57
2022-08-07T14:17:13.030Z,28.43
2022-08-07T14:20:43.086Z,28.03
2022-08-07T14:22:53.037Z,27.67
2022-08-07T14:25:29.477Z,27.82
2022-08-07T14:28:13.562Z,27.93
2022-08-07T14:30:46.123Z,27.92
2022-08-07T14:33:15.846Z,27.95
2022-08-07T14:35:55.713Z,28.00
2022-08-07T14:38:31.204Z,27.81
2022-08-07T14:41:04.067Z,27.75
2022-08-07T14:43:59.292Z,27.66
2022-08-07T14:46:31.060Z,27.77
2022-08-07T14:49:00.166Z,27.59
2022-08-07T14:54:42.131Z,27.68
2022-08-07T14:57:19.217Z,27.79
2022-08-07T15:05:24.625Z,27.71
2022-08-07T15:07:53.396Z,28.02
2022-08-07T15:10:25.069Z,27.70
2022-08-07T15:12:58.278Z,27.10
2022-08-07T15:15:34.611Z,27.18
2022-08-07T15:18:14.566Z,26.92
2022-08-07T15:21:07.932Z,26.75
2022-08-07T15:25:12.792Z,26.59
2022-08-07T15:26:35.327Z,26.51
2022-08-07T15:30:06.467Z,26.44
2022-08-07T15:32:00.727Z,26.38
2022-08-07T15:34:36.783Z,26.28
2022-08-07T15:37:06.916Z,26.13
2022-08-07T15:39:58.972Z,25.78
2022-08-07T15:42:43.541Z,25.76
2022-08-07T15:48:30.860Z,25.40
2022-08-07T15:51:09.301Z,25.58
2022-08-07T15:53:52.608Z,25.65
2022-08-07T15:56:24.647Z,25.67
2022-08-07T15:58:58.860Z,25.78
2022-08-07T16:01:39.026Z,25.77
2022-08-07T16:04:14.723Z,25.86
2022-08-07T16:06:51.170Z,25.73
2022-08-07T16:09:22.569Z,25.66
2022-08-07T16:12:25.026Z,25.60
2022-08-07T16:14:59.155Z,25.71
2022-08-07T16:18:01.274Z,25.68
2022-08-07T16:20:43.293Z,25.68
2022-08-07T16:23:53.738Z,25.75
2022-08-07T16:26:30.689Z,25.71
2022-08-07T16:30:06.675Z,25.71
2022-08-07T16:32:03.950Z,25.72
2022-08-07T16:34:45.332Z,25.70
2022-08-07T16:38:04.682Z,25.68
2022-08-07T16:41:01.376Z,25.58
2022-08-07T16:44:02.513Z,25.61
2022-08-07T16:47:06.859Z,25.70
2022-08-07T16:50:27.401Z,25.51
2022-08-07T16:54:01.269Z,25.59
2022-08-07T16:56:12.839Z,25.57
2022-08-07T16:59:14.751Z,25.61
2022-08-07T17:02:51.567Z,25.47
2022-08-07T17:06:19.380Z,25.38
2022-08-07T17:08:17.571Z,25.50
2022-08-07T17:10:55.616Z,25.48
2022-08-07T17:13:41.171Z,25.47
2022-08-07T17:16:25.931Z,25.46
2022-08-07T17:18:52.305Z,25.53
2022-08-07T17:21:23.551Z,25.54
2022-08-07T17:24:14.429Z,25.59
2022-08-07T17:26:50.183Z,25.37
2022-08-07T17:30:14.386Z,25.20
2022-08-07T17:32:52.247Z,25.32
2022-08-07T17:35:50.840Z,25.26
2022-08-07T17:38:34.335Z,25.36
2022-08-07T17:41:12.514Z,25.25
2022-08-07T17:44:01.115Z,25.00
2022-08-07T17:46:40.409Z,24.97
2022-08-07T17:49:24.302Z,24.87
2022-08-07T17:52:00.500Z,24.75
2022-08-07T17:54:55.166Z,24.69
2022-08-07T17:57:32.024Z,24.54
2022-08-07T18:00:32.940Z,24.52
2022-08-07T18:03:10.429Z,24.48
2022-08-07T18:06:02.889Z,24.43
2022-08-07T18:09:01.172Z,24.37
2022-08-07T18:12:06.990Z,24.09
2022-08-07T18:14:45.123Z,24.01
2022-08-07T18:18:45.695Z,23.84
2022-08-07T18:21:10.404Z,23.70
2022-08-07T18:23:42.958Z,23.58
2022-08-07T18:26:15.127Z,23.42
2022-08-07T18:29:04.172Z,23.41
2022-08-07T18:32:07.538Z,23.23
2022-08-07T18:34:53.253Z,23.07
2022-08-07T18:38:55.627Z,22.87
2022-08-07T18:41:09.268Z,22.79
2022-08-07T18:43:49.191Z,22.63
2022-08-07T18:46:27.412Z,22.43
2022-08-07T18:50:32.458Z,22.46
2022-08-07T18:52:33.983Z,22.37
2022-08-07T18:55:40.939Z,22.29
2022-08-07T18:58:34.688Z,22.14
2022-08-07T19:01:01.850Z,21.95
2022-08-07T19:03:52.230Z,21.96
2022-08-07T19:06:48.287Z,21.82
2022-08-07T19:09:55.695Z,21.80
2022-08-07T19:12:26.401Z,21.68
2022-08-07T19:14:56.050Z,21.58
2022-08-07T19:17:58.922Z,21.43
2022-08-07T19:21:08.932Z,21.21
2022-08-07T19:23:58.537Z,21.14
2022-08-07T19:26:55.450Z,21.04
2022-08-07T19:31:00.549Z,20.99
2022-08-07T19:32:28.780Z,20.89
2022-08-07T19:35:00.736Z,20.72
2022-08-07T19:37:56.462Z,20.61
2022-08-07T19:40:17.283Z,20.48
2022-08-07T19:42:58.454Z,20.34
2022-08-07T19:45:53.089Z,20.28
2022-08-07T19:48:24.632Z,20.20
2022-08-07T19:50:53.566Z,20.17
2022-08-07T19:54:33.901Z,20.17
2022-08-07T19:57:50.854Z,19.96
2022-08-07T19:58:58.101Z,19.71
2022-08-07T20:01:52.989Z,19.48
2022-08-07T20:04:32.006Z,19.50
2022-08-07T20:07:04.644Z,19.57
2022-08-07T20:10:36.968Z,19.54
2022-08-07T20:12:37.923Z,19.51
2022-08-07T20:15:15.703Z,19.46
2022-08-07T20:18:01.505Z,19.34
2022-08-07T20:20:32.647Z,19.28
2022-08-07T20:23:23.219Z,19.19
2022-08-07T20:25:52.876Z,19.16
2022-08-07T20:28:20.664Z,18.97
2022-08-07T20:30:56.458Z,18.76
2022-08-07T20:33:38.218Z,18.67
2022-08-07T20:36:07.012Z,18.70
2022-08-07T20:38:35.010Z,18.74
2022-08-07T20:41:05.454Z,18.55
2022-08-07T20:43:33.758Z,18.16
2022-08-07T20:46:28.389Z,18.27
2022-08-07T20:48:58.152Z,18.33
2022-08-07T20:51:40.604Z,18.24
2022-08-07T20:54:29.601Z,18.27
2022-08-07T20:57:06.739Z,18.30
2022-08-07T21:00:06.763Z,18.18
2022-08-07T21:02:55.068Z,18.09
2022-08-07T21:05:43.067Z,17.93
2022-08-07T21:08:15.558Z,17.86
2022-08-07T21:10:44.502Z,17.82
2022-08-07T21:13:17.673Z,17.75
2022-08-07T21:16:00.890Z,17.66
2022-08-07T21:18:33.640Z,17.61
2022-08-07T21:21:01.387Z,17.65
2022-08-07T21:23:42.906Z,17.61
2022-08-07T21:26:47.722Z,17.51
2022-08-07T21:29:30.799Z,17.44
2022-08-07T21:32:47.266Z,17.36
2022-08-07T21:36:03.850Z,17.31
2022-08-07T21:38:49.749Z,17.22
2022-08-07T21:41:38.149Z,17.17
2022-08-07T21:44:25.389Z,17.11
2022-08-07T21:47:03.795Z,17.06
2022-08-07T21:50:02.023Z,17.04
2022-08-07T21:52:57.833Z,16.90
2022-08-07T21:55:30.814Z,16.84
2022-08-07T21:58:12.215Z,16.83
2022-08-07T22:01:02.779Z,16.80
2022-08-07T22:03:40.945Z,16.83
2022-08-07T22:06:36.904Z,16.71
2022-08-07T22:09:13.588Z,16.67
2022-08-07T22:11:53.371Z,16.65
2022-08-07T22:14:38.909Z,16.61
2022-08-07T22:17:35.752Z,16.56
2022-08-07T22:20:10.656Z,16.47
2022-08-07T22:22:44.945Z,16.42
2022-08-07T22:25:29.056Z,16.29
2022-08-07T22:28:31.233Z,16.19
2022-08-07T22:31:09.783Z,16.18
2022-08-07T22:33:56.428Z,16.20
2022-08-07T22:36:36.364Z,16.15
2022-08-07T22:39:18.201Z,16.01
2022-08-07T22:42:19.473Z,15.97
2022-08-07T22:44:58.755Z,16.00
2022-08-07T22:47:37.453Z,15.95
2022-08-07T22:50:33.647Z,15.87
2022-08-07T22:54:05.503Z,15.78
2022-08-07T22:56:18.799Z,15.73
2022-08-07T22:59:09.244Z,15.62
2022-08-07T23:01:58.923Z,15.56
2022-08-07T23:04:57.696Z,15.55
2022-08-07T23:07:50.788Z,15.46
2022-08-07T23:10:37.580Z,15.41
2022-08-07T23:13:48.713Z,15.31
2022-08-07T23:17:08.608Z,15.28
2022-08-07T23:20:19.559Z,15.29
2022-08-07T23:23:01.286Z,15.23
2022-08-07T23:26:00.146Z,15.17
2022-08-07T23:29:42.873Z,15.17
2022-08-07T23:34:20.775Z,15.12
2022-08-07T23:35:11.998Z,15.04
2022-08-07T23:38:00.382Z,15.04
2022-08-07T23:40:51.751Z,14.97
2022-08-07T23:43:37.960Z,14.90
2022-08-07T23:46:36.676Z,14.88
2022-08-07T23:49:42.057Z,14.76
2022-08-07T23:53:05.491Z,14.68
2022-08-07T23:55:52.437Z,14.70
2022-08-07T23:58:21.634Z,14.62
